createdAt,value
2019-05-13T00:01:53.961Z,95.50
2019-05-13T00:04:24.210Z,95.10
2019-05-13T00:06:55.150Z,95.60
2019-05-13T00:09:24.472Z,95.20
2019-05-13T00:11:54.023Z,95.40
2019-05-13T00:14:23.953Z,95.90
2019-05-13T00:16:53.670Z,95.90
2019-05-13T00:19:23.330Z,95.90
2019-05-13T00:21:54.469Z,95.80
2019-05-13T00:24:24.257Z,95.80
2019-05-13T00:26:53.269Z,95.20
2019-05-13T00:29:23.457Z,95.90
2019-05-13T00:31:54.030Z,95.70
2019-05-13T00:34:24.371Z,95.60
2019-05-13T00:37:07.310Z,95.70
2019-05-13T00:39:24.591Z,95.90
2019-05-13T00:41:53.792Z,95.90
2019-05-13T00:44:24.394Z,95.60
2019-05-13T00:46:53.898Z,95.20
2019-05-13T00:49:23.894Z,95.80
2019-05-13T00:51:53.398Z,95.80
2019-05-13T00:54:23.666Z,95.80
2019-05-13T00:56:54.802Z,95.70
2019-05-13T00:59:24.272Z,95.50
2019-05-13T01:01:53.446Z,95.50
2019-05-13T01:04:23.292Z,95.10
2019-05-13T01:06:53.745Z,95.80
2019-05-13T01:09:23.731Z,95.80
2019-05-13T01:11:53.702Z,95.70
2019-05-13T01:14:23.591Z,95.70
2019-05-13T01:16:54.417Z,96.30
2019-05-13T01:19:23.778Z,95.60
2019-05-13T01:21:54.050Z,96.10
2019-05-13T01:24:24.398Z,95.60
2019-05-13T01:26:54.274Z,95.70
2019-05-13T01:29:23.906Z,95.80
2019-05-13T01:31:53.866Z,95.40
2019-05-13T01:34:25.080Z,95.60
2019-05-13T01:36:53.692Z,95.90
2019-05-13T01:39:24.279Z,95.80
2019-05-13T01:41:54.044Z,95.90
2019-05-13T01:44:24.391Z,95.50
2019-05-13T01:46:53.866Z,95.80
2019-05-13T01:49:24.143Z,95.90
2019-05-13T01:51:54.214Z,95.80
2019-05-13T01:54:24.669Z,95.50
2019-05-13T01:56:54.029Z,95.90
2019-05-13T01:59:23.902Z,95.90
2019-05-13T02:01:54.037Z,95.90
2019-05-13T02:04:24.430Z,96.00
2019-05-13T02:06:54.313Z,96.20
2019-05-13T02:09:24.548Z,96.00
2019-05-13T02:11:53.819Z,95.90
2019-05-13T02:14:23.712Z,95.60
2019-05-13T02:16:53.574Z,96.10
2019-05-13T02:19:24.514Z,96.50
2019-05-13T02:21:54.301Z,96.50
2019-05-13T02:24:23.774Z,95.90
2019-05-13T02:26:54.292Z,96.30
2019-05-13T02:29:24.458Z,95.90
2019-05-13T02:31:56.321Z,95.90
2019-05-13T02:34:24.196Z,96.70
2019-05-13T02:36:53.292Z,96.80
2019-05-13T02:39:22.548Z,97.00
2019-05-13T02:41:52.652Z,96.30
2019-05-13T02:44:22.544Z,95.90
2019-05-13T02:46:52.551Z,96.90
2019-05-13T02:49:23.113Z,96.30
2019-05-13T02:51:54.743Z,97.10
2019-05-13T02:54:23.320Z,97.10
2019-05-13T02:56:52.787Z,95.90
2019-05-13T02:59:22.849Z,96.60
2019-05-13T03:01:53.458Z,96.90
2019-05-13T03:04:23.598Z,96.90
2019-05-13T03:06:52.877Z,97.60
2019-05-13T03:09:22.917Z,97.50
2019-05-13T03:11:53.680Z,97.40
2019-05-13T03:14:24.143Z,98.00
2019-05-13T03:17:03.250Z,98.30
2019-05-13T03:19:33.210Z,98.30
2019-05-13T03:22:03.272Z,96.50
2019-05-13T03:24:33.345Z,97.00
2019-05-13T03:27:02.883Z,97.50
2019-05-13T03:29:32.939Z,97.90
2019-05-13T03:32:06.433Z,98.00
2019-05-13T03:34:36.129Z,98.10
2019-05-13T03:37:06.361Z,98.10
2019-05-13T03:39:37.633Z,98.20
2019-05-13T03:42:06.350Z,98.20
2019-05-13T03:44:36.885Z,98.40
2019-05-13T03:47:06.483Z,98.10
2019-05-13T03:49:36.089Z,98.30
2019-05-13T03:52:05.615Z,98.30
2019-05-13T03:54:35.446Z,98.20
2019-05-13T03:57:04.356Z,98.20
2019-05-13T03:59:33.931Z,98.40
2019-05-13T04:02:03.458Z,97.60
2019-05-13T04:04:32.798Z,98.30
2019-05-13T04:07:02.986Z,98.50
2019-05-13T04:09:36.522Z,97.90
2019-05-13T04:12:04.079Z,98.30
2019-05-13T04:14:33.824Z,97.60
2019-05-13T04:17:03.518Z,97.80
2019-05-13T04:19:34.261Z,97.60
2019-05-13T04:22:03.379Z,98.00
2019-05-13T04:24:33.578Z,97.70
2019-05-13T04:27:03.410Z,96.90
2019-05-13T04:29:33.217Z,97.50
2019-05-13T04:32:02.725Z,96.60
2019-05-13T04:34:33.633Z,97.50
2019-05-13T04:37:03.192Z,97.20
2019-05-13T04:39:45.239Z,96.40
2019-05-13T04:42:03.819Z,96.50
2019-05-13T04:44:33.155Z,97.30
2019-05-13T04:47:03.549Z,97.80
2019-05-13T04:49:32.931Z,97.80
2019-05-13T04:52:03.435Z,97.90
2019-05-13T04:54:33.540Z,98.10
2019-05-13T04:57:03.454Z,97.00
2019-05-13T04:59:34.086Z,97.20
2019-05-13T05:02:22.345Z,96.90
2019-05-13T05:05:05.854Z,97.50
2019-05-13T05:08:03.183Z,97.00
2019-05-13T05:10:42.735Z,97.20
2019-05-13T05:13:35.689Z,97.90
2019-05-13T05:16:23.981Z,97.90
2019-05-13T05:19:15.482Z,98.10
2019-05-13T05:22:03.700Z,98.20
2019-05-13T05:24:52.044Z,97.80
2019-05-13T05:27:45.322Z,97.60
2019-05-13T05:30:41.207Z,97.60
2019-05-13T05:33:34.290Z,97.40
2019-05-13T05:36:05.960Z,97.00
2019-05-13T05:38:43.569Z,96.80
2019-05-13T05:41:15.623Z,96.70
2019-05-13T05:43:45.545Z,96.70
2019-05-13T05:46:15.155Z,96.90
2019-05-13T05:48:49.840Z,96.60
2019-05-13T05:51:19.317Z,96.10
2019-05-13T05:53:51.735Z,96.90
2019-05-13T05:56:23.414Z,96.20
2019-05-13T05:58:53.980Z,96.00
2019-05-13T06:01:24.454Z,95.80
2019-05-13T06:03:57.133Z,95.00
2019-05-13T06:06:25.964Z,95.00
2019-05-13T06:08:55.037Z,94.40
2019-05-13T06:11:23.743Z,94.10
2019-05-13T06:13:54.622Z,93.90
2019-05-13T06:16:24.178Z,93.60
2019-05-13T06:18:53.248Z,93.30
2019-05-13T06:21:22.018Z,94.00
2019-05-13T06:23:51.915Z,94.30
2019-05-13T06:26:23.674Z,94.00
2019-05-13T06:28:52.163Z,94.20
2019-05-13T06:31:21.715Z,93.90
2019-05-13T06:33:51.558Z,93.50
2019-05-13T06:36:22.150Z,93.50
2019-05-13T06:38:51.573Z,92.60
2019-05-13T06:41:21.986Z,91.90
2019-05-13T06:43:52.393Z,90.40
2019-05-13T06:46:21.882Z,86.10
2019-05-13T06:48:52.191Z,86.80
2019-05-13T06:51:22.227Z,84.00
2019-05-13T06:53:51.906Z,83.50
2019-05-13T06:56:21.773Z,76.10
2019-05-13T06:58:51.987Z,74.30
2019-05-13T07:01:21.705Z,73.10
2019-05-13T07:03:51.796Z,80.40
2019-05-13T07:06:21.787Z,77.50
2019-05-13T07:08:52.108Z,75.80
2019-05-13T07:11:24.062Z,75.10
2019-05-13T07:13:51.705Z,81.20
2019-05-13T07:16:22.332Z,77.30
2019-05-13T07:18:52.250Z,75.90
2019-05-13T07:21:21.787Z,57.40
2019-05-13T07:23:54.215Z,58.30
2019-05-13T07:26:22.121Z,58.50
2019-05-13T07:28:52.566Z,55.40
2019-05-13T07:31:21.944Z,55.80
2019-05-13T07:33:51.831Z,54.70
2019-05-13T07:36:22.575Z,51.90
2019-05-13T07:38:52.610Z,53.10
2019-05-13T07:41:35.605Z,54.70
2019-05-13T07:43:52.172Z,53.00
2019-05-13T07:46:21.774Z,56.00
2019-05-13T07:48:52.109Z,58.00
2019-05-13T07:51:22.145Z,51.50
2019-05-13T07:53:51.891Z,51.20
2019-05-13T07:56:21.861Z,55.70
2019-05-13T07:58:52.353Z,51.30
2019-05-13T08:01:22.343Z,54.40
2019-05-13T08:03:51.667Z,53.90
2019-05-13T08:06:22.055Z,50.80
2019-05-13T08:08:52.355Z,54.90
2019-05-13T08:11:22.386Z,50.50
2019-05-13T08:13:51.882Z,52.90
2019-05-13T08:16:22.306Z,54.20
2019-05-13T08:18:52.357Z,57.30
2019-05-13T08:21:21.647Z,52.30
2019-05-13T08:23:52.539Z,51.10
2019-05-13T08:26:21.960Z,49.50
2019-05-13T08:29:00.484Z,49.00
2019-05-13T08:31:21.791Z,50.90
2019-05-13T08:33:51.854Z,51.70
2019-05-13T08:36:23.469Z,50.70
2019-05-13T08:38:52.143Z,47.80
2019-05-13T08:41:23.473Z,49.90
2019-05-13T08:43:52.367Z,46.40
2019-05-13T08:46:22.007Z,45.90
2019-05-13T08:48:51.779Z,45.90
2019-05-13T08:51:22.086Z,49.30
2019-05-13T08:53:51.668Z,41.90
2019-05-13T08:56:21.762Z,43.10
2019-05-13T08:58:52.103Z,43.80
2019-05-13T09:01:22.701Z,47.20
2019-05-13T09:03:52.324Z,47.10
2019-05-13T09:06:22.097Z,47.30
2019-05-13T09:08:53.749Z,46.00
2019-05-13T09:11:22.690Z,45.50
2019-05-13T09:13:51.782Z,46.50
2019-05-13T09:16:21.534Z,47.40
2019-05-13T09:18:52.012Z,44.60
2019-05-13T09:21:22.492Z,45.00
2019-05-13T09:23:51.848Z,43.10
2019-05-13T09:26:22.550Z,45.40
2019-05-13T09:28:52.120Z,42.20
2019-05-13T09:31:22.201Z,39.60
2019-05-13T09:33:52.084Z,41.70
2019-05-13T09:36:21.867Z,44.10
2019-05-13T09:38:52.478Z,42.20
2019-05-13T09:41:21.987Z,39.00
2019-05-13T09:43:51.513Z,41.00
2019-05-13T09:46:22.738Z,40.90
2019-05-13T09:48:51.774Z,42.00
2019-05-13T09:51:21.675Z,40.00
2019-05-13T09:53:51.945Z,39.50
2019-05-13T09:56:22.374Z,39.10
2019-05-13T09:58:51.604Z,37.50
2019-05-13T10:01:22.603Z,37.80
2019-05-13T10:03:55.001Z,38.40
2019-05-13T10:06:22.335Z,39.10
2019-05-13T10:08:52.729Z,40.50
2019-05-13T10:11:21.966Z,40.40
2019-05-13T10:13:51.654Z,40.00
2019-05-13T10:16:22.087Z,39.20
2019-05-13T10:18:52.452Z,41.30
2019-05-13T10:21:22.035Z,41.80
2019-05-13T10:23:52.082Z,43.30
2019-05-13T10:26:22.647Z,43.70
2019-05-13T10:28:52.762Z,45.20
2019-05-13T10:31:22.097Z,46.60
2019-05-13T10:33:51.583Z,46.00
2019-05-13T10:36:22.266Z,46.60
2019-05-13T10:38:52.505Z,46.30
2019-05-13T10:41:22.321Z,46.10
2019-05-13T10:43:52.049Z,47.40
2019-05-13T10:46:22.081Z,48.20
2019-05-13T10:48:52.737Z,48.10
2019-05-13T10:51:22.483Z,48.30
2019-05-13T10:53:54.582Z,48.30
2019-05-13T10:56:22.629Z,49.20
2019-05-13T10:58:53.397Z,49.60
2019-05-13T11:01:23.027Z,50.00
2019-05-13T11:03:52.421Z,49.20
2019-05-13T11:06:22.120Z,47.90
2019-05-13T11:08:53.230Z,48.30
2019-05-13T11:11:22.102Z,46.50
2019-05-13T11:13:58.861Z,47.20
2019-05-13T11:16:22.698Z,47.40
2019-05-13T11:18:52.267Z,46.90
2019-05-13T11:21:22.181Z,47.30
2019-05-13T11:23:51.814Z,46.50
2019-05-13T11:26:22.264Z,48.30
2019-05-13T11:28:52.172Z,46.80
2019-05-13T11:31:22.481Z,47.90
2019-05-13T11:33:52.340Z,47.90
2019-05-13T11:36:23.387Z,48.90
2019-05-13T11:38:53.101Z,49.50
2019-05-13T11:41:23.057Z,49.20
2019-05-13T11:44:09.209Z,48.90
2019-05-13T11:46:22.821Z,49.90
2019-05-13T11:48:52.536Z,50.00
2019-05-13T11:51:24.027Z,50.20
2019-05-13T11:53:53.089Z,50.20
2019-05-13T11:56:23.113Z,49.80
2019-05-13T11:58:53.301Z,49.40
2019-05-13T12:01:23.202Z,49.60
2019-05-13T12:03:53.164Z,50.10
2019-05-13T12:06:23.621Z,50.70
2019-05-13T12:08:55.272Z,49.50
2019-05-13T12:11:23.278Z,49.90
2019-05-13T12:13:52.791Z,49.90
2019-05-13T12:16:22.880Z,50.30
2019-05-13T12:18:52.827Z,49.40
2019-05-13T12:21:22.098Z,48.40
2019-05-13T12:23:52.753Z,48.60
2019-05-13T12:26:23.823Z,49.90
2019-05-13T12:28:53.560Z,48.10
2019-05-13T12:31:23.013Z,48.40
2019-05-13T12:33:52.597Z,47.30
2019-05-13T12:36:23.616Z,47.50
2019-05-13T12:38:53.847Z,47.70
2019-05-13T12:41:23.311Z,49.00
2019-05-13T12:43:53.951Z,48.60
2019-05-13T12:46:24.688Z,46.60
2019-05-13T12:48:53.107Z,47.30
2019-05-13T12:51:22.859Z,46.70
2019-05-13T12:53:52.755Z,46.20
2019-05-13T12:56:23.497Z,43.80
2019-05-13T12:58:52.415Z,45.70
2019-05-13T13:01:23.859Z,46.00
2019-05-13T13:03:52.182Z,46.80
2019-05-13T13:06:30.461Z,45.70
2019-05-13T13:08:52.454Z,46.40
2019-05-13T13:11:22.831Z,46.00
2019-05-13T13:13:58.888Z,47.30
2019-05-13T13:16:22.384Z,48.10
2019-05-13T13:18:52.365Z,47.30
2019-05-13T13:21:24.335Z,47.40
2019-05-13T13:23:53.079Z,47.30
2019-05-13T13:26:22.179Z,47.00
2019-05-13T13:28:55.522Z,48.20
2019-05-13T13:31:25.098Z,51.90
2019-05-13T13:33:55.474Z,52.60
2019-05-13T13:36:24.367Z,53.10
2019-05-13T13:38:56.251Z,53.20
2019-05-13T13:41:24.333Z,55.20
2019-05-13T13:43:54.061Z,57.20
2019-05-13T13:46:36.315Z,58.20
2019-05-13T13:48:55.546Z,57.60
2019-05-13T13:51:26.643Z,56.40
2019-05-13T13:53:56.698Z,56.60
2019-05-13T13:56:25.790Z,55.90
2019-05-13T13:58:54.502Z,57.60
2019-05-13T14:01:27.249Z,57.30
2019-05-13T14:03:54.323Z,58.30
2019-05-13T14:07:22.470Z,59.00
2019-05-13T14:08:54.421Z,59.40
2019-05-13T14:11:23.427Z,60.60
2019-05-13T14:13:52.626Z,61.60
2019-05-13T14:16:29.207Z,60.80
2019-05-13T14:18:52.735Z,61.20
2019-05-13T14:21:22.131Z,60.80
2019-05-13T14:23:51.975Z,60.50
2019-05-13T14:26:22.152Z,61.10
2019-05-13T14:28:53.650Z,61.10
2019-05-13T14:31:21.677Z,61.80
2019-05-13T14:33:51.971Z,64.00
2019-05-13T14:36:23.107Z,63.40
2019-05-13T14:38:52.688Z,60.50
2019-05-13T14:41:22.101Z,57.60
2019-05-13T14:43:51.645Z,56.80
2019-05-13T14:46:30.608Z,57.50
2019-05-13T14:48:51.347Z,56.20
2019-05-13T14:51:21.863Z,55.80
2019-05-13T14:53:52.122Z,54.80
2019-05-13T14:56:22.170Z,54.70
2019-05-13T14:58:52.058Z,54.70
2019-05-13T15:01:22.741Z,54.70
2019-05-13T15:03:52.132Z,55.00
2019-05-13T15:06:22.235Z,56.30
2019-05-13T15:08:52.646Z,54.90
2019-05-13T15:11:22.338Z,55.70
2019-05-13T15:13:51.850Z,55.70
2019-05-13T15:16:22.404Z,55.20
2019-05-13T15:18:52.468Z,55.20
2019-05-13T15:21:21.796Z,55.20
2019-05-13T15:23:51.829Z,55.30
2019-05-13T15:26:22.314Z,55.40
2019-05-13T15:28:52.200Z,56.70
2019-05-13T15:31:22.250Z,57.30
2019-05-13T15:33:52.412Z,57.00
2019-05-13T15:36:22.626Z,57.40
2019-05-13T15:38:51.948Z,57.80
2019-05-13T15:41:21.472Z,58.80
2019-05-13T15:44:08.774Z,59.00
2019-05-13T15:46:21.987Z,60.00
2019-05-13T15:48:51.515Z,61.50
2019-05-13T15:51:22.070Z,62.00
2019-05-13T15:53:52.144Z,61.30
2019-05-13T15:56:22.380Z,61.40
2019-05-13T15:58:52.920Z,61.40
2019-05-13T16:01:22.950Z,63.10
2019-05-13T16:03:52.686Z,63.60
2019-05-13T16:06:21.671Z,63.40
2019-05-13T16:08:51.841Z,64.30
2019-05-13T16:11:22.142Z,64.60
2019-05-13T16:13:51.925Z,65.00
2019-05-13T16:16:21.994Z,63.90
2019-05-13T16:18:51.705Z,66.30
2019-05-13T16:21:20.994Z,65.20
2019-05-13T16:23:51.488Z,65.90
2019-05-13T16:26:22.466Z,65.40
2019-05-13T16:28:52.228Z,65.40
2019-05-13T16:31:20.901Z,65.60
2019-05-13T16:33:52.099Z,64.70
2019-05-13T16:36:22.125Z,64.30
2019-05-13T16:38:51.432Z,63.80
2019-05-13T16:41:22.224Z,64.50
2019-05-13T16:43:50.965Z,64.20
2019-05-13T16:46:21.429Z,65.40
2019-05-13T16:48:50.530Z,64.00
2019-05-13T16:51:21.602Z,64.30
2019-05-13T16:53:52.246Z,63.90
2019-05-13T16:56:27.622Z,64.70
2019-05-13T16:58:52.149Z,65.40
2019-05-13T17:01:22.005Z,65.10
2019-05-13T17:03:51.396Z,65.70
2019-05-13T17:06:21.697Z,66.20
2019-05-13T17:08:51.622Z,66.60
2019-05-13T17:11:21.053Z,67.50
2019-05-13T17:13:51.463Z,67.20
2019-05-13T17:16:21.283Z,66.90
2019-05-13T17:18:52.085Z,66.40
2019-05-13T17:21:21.362Z,66.20
2019-05-13T17:23:52.382Z,66.50
2019-05-13T17:26:22.332Z,66.80
2019-05-13T17:28:51.894Z,67.90
2019-05-13T17:31:21.902Z,67.20
2019-05-13T17:33:51.947Z,68.10
2019-05-13T17:36:21.802Z,68.40
2019-05-13T17:38:51.192Z,68.00
2019-05-13T17:41:21.345Z,69.20
2019-05-13T17:43:51.806Z,68.90
2019-05-13T17:46:21.862Z,68.40
2019-05-13T17:48:52.065Z,69.10
2019-05-13T17:51:22.512Z,68.90
2019-05-13T17:53:52.187Z,68.50
2019-05-13T17:56:21.809Z,68.20
2019-05-13T17:58:50.998Z,68.10
2019-05-13T18:01:21.229Z,68.30
2019-05-13T18:03:51.788Z,68.40
2019-05-13T18:06:20.853Z,68.50
2019-05-13T18:08:51.786Z,68.20
2019-05-13T18:11:21.905Z,68.50
2019-05-13T18:13:51.846Z,68.10
2019-05-13T18:16:21.860Z,68.10
2019-05-13T18:18:52.190Z,68.50
2019-05-13T18:21:21.284Z,68.60
2019-05-13T18:23:52.159Z,69.00
2019-05-13T18:26:21.656Z,68.80
2019-05-13T18:28:51.465Z,69.30
2019-05-13T18:31:20.540Z,68.30
2019-05-13T18:33:51.117Z,68.40
2019-05-13T18:36:22.117Z,68.90
2019-05-13T18:38:50.098Z,68.10
2019-05-13T18:41:21.171Z,68.40
2019-05-13T18:43:52.807Z,68.10
2019-05-13T18:46:21.740Z,68.50
2019-05-13T18:48:58.775Z,69.00
2019-05-13T18:51:21.198Z,69.70
2019-05-13T18:53:51.898Z,69.50
2019-05-13T18:56:21.950Z,70.50
2019-05-13T18:58:51.136Z,70.40
2019-05-13T19:01:21.581Z,70.90
2019-05-13T19:03:50.569Z,72.30
2019-05-13T19:06:22.199Z,72.20
2019-05-13T19:08:52.676Z,72.10
2019-05-13T19:11:22.292Z,72.30
2019-05-13T19:13:52.186Z,72.70
2019-05-13T19:16:21.414Z,72.70
2019-05-13T19:18:50.959Z,74.00
2019-05-13T19:21:21.734Z,73.10
2019-05-13T19:23:52.085Z,73.70
2019-05-13T19:26:21.820Z,74.00
2019-05-13T19:28:51.647Z,73.60
2019-05-13T19:31:22.104Z,73.40
2019-05-13T19:33:52.096Z,73.70
2019-05-13T19:36:21.149Z,73.10
2019-05-13T19:38:51.272Z,74.30
2019-05-13T19:41:22.226Z,73.70
2019-05-13T19:43:51.548Z,74.70
2019-05-13T19:46:20.671Z,74.50
2019-05-13T19:48:49.421Z,74.40
2019-05-13T19:51:18.107Z,74.30
2019-05-13T19:53:46.835Z,74.90
2019-05-13T19:56:15.926Z,74.90
2019-05-13T19:58:44.667Z,73.80
2019-05-13T20:01:13.442Z,74.00
2019-05-13T20:03:42.551Z,73.10
2019-05-13T20:06:12.341Z,72.10
2019-05-13T20:08:41.723Z,72.30
2019-05-13T20:11:11.440Z,71.70
2019-05-13T20:13:41.847Z,71.30
2019-05-13T20:16:11.949Z,71.40
2019-05-13T20:18:41.556Z,71.10
2019-05-13T20:21:13.392Z,70.30
2019-05-13T20:23:41.417Z,70.80
2019-05-13T20:26:10.480Z,71.00
2019-05-13T20:28:41.844Z,71.20
2019-05-13T20:31:11.124Z,71.50
2019-05-13T20:33:42.874Z,71.80
2019-05-13T20:36:11.850Z,72.20
2019-05-13T20:38:41.312Z,72.40
2019-05-13T20:41:11.646Z,73.50
2019-05-13T20:43:42.549Z,73.00
2019-05-13T20:46:12.208Z,72.60
2019-05-13T20:48:41.240Z,73.40
2019-05-13T20:51:11.386Z,73.10
2019-05-13T20:53:41.325Z,73.40
2019-05-13T20:56:10.630Z,73.60
2019-05-13T20:58:42.020Z,74.40
2019-05-13T21:01:11.167Z,74.60
2019-05-13T21:03:42.004Z,74.00
2019-05-13T21:06:11.714Z,74.60
2019-05-13T21:08:41.464Z,74.90
2019-05-13T21:11:11.515Z,74.50
2019-05-13T21:13:41.368Z,75.40
2019-05-13T21:16:11.411Z,75.30
2019-05-13T21:18:42.069Z,76.10
2019-05-13T21:21:11.785Z,75.20
2019-05-13T21:23:41.770Z,76.80
2019-05-13T21:26:15.044Z,76.30
2019-05-13T21:28:42.023Z,77.00
2019-05-13T21:31:11.363Z,76.70
2019-05-13T21:33:40.638Z,77.20
2019-05-13T21:36:12.102Z,79.90
2019-05-13T21:38:40.545Z,79.80
2019-05-13T21:41:11.627Z,80.90
2019-05-13T21:43:41.443Z,82.10
2019-05-13T21:46:12.036Z,81.90
2019-05-13T21:48:41.785Z,81.90
2019-05-13T21:51:13.229Z,84.00
2019-05-13T21:53:41.395Z,84.70
2019-05-13T21:56:12.207Z,86.00
2019-05-13T21:58:41.889Z,85.40
2019-05-13T22:01:10.991Z,86.40
2019-05-13T22:03:42.014Z,86.70
2019-05-13T22:06:11.051Z,87.60
2019-05-13T22:08:41.303Z,88.20
2019-05-13T22:11:12.068Z,88.50
2019-05-13T22:13:42.057Z,88.00
2019-05-13T22:16:11.178Z,89.00
2019-05-13T22:18:41.786Z,89.10
2019-05-13T22:21:11.862Z,88.20
2019-05-13T22:23:41.279Z,89.70
2019-05-13T22:26:11.644Z,90.10
2019-05-13T22:28:41.765Z,89.20
2019-05-13T22:31:11.684Z,88.40
2019-05-13T22:33:41.392Z,88.40
2019-05-13T22:36:11.819Z,87.20
2019-05-13T22:38:42.663Z,89.70
2019-05-13T22:41:12.209Z,87.40
2019-05-13T22:43:54.407Z,89.10
2019-05-13T22:46:13.950Z,90.00
2019-05-13T22:48:42.033Z,88.40
2019-05-13T22:51:11.791Z,90.10
2019-05-13T22:53:42.212Z,89.90
2019-05-13T22:56:11.703Z,88.40
2019-05-13T22:58:41.279Z,89.10
2019-05-13T23:01:11.535Z,90.40
2019-05-13T23:03:41.287Z,90.40
2019-05-13T23:06:12.088Z,90.30
2019-05-13T23:08:40.727Z,89.50
2019-05-13T23:11:09.449Z,90.40
2019-05-13T23:14:07.354Z,90.60
2019-05-13T23:16:28.147Z,90.00
2019-05-13T23:18:57.227Z,90.20
2019-05-13T23:21:25.997Z,90.50
2019-05-13T23:23:54.742Z,89.70
2019-05-13T23:26:23.487Z,90.70
2019-05-13T23:28:52.590Z,89.70
2019-05-13T23:31:21.705Z,90.70
2019-05-13T23:33:50.798Z,90.50
2019-05-13T23:36:21.111Z,90.60
2019-05-13T23:38:51.668Z,90.40
2019-05-13T23:41:21.821Z,90.50
2019-05-13T23:43:50.951Z,90.80
2019-05-13T23:46:22.080Z,90.90
2019-05-13T23:48:52.032Z,91.10
2019-05-13T23:51:21.608Z,90.80
2019-05-13T23:53:51.119Z,91.30
2019-05-13T23:56:21.727Z,91.40
2019-05-13T23:58:51.896Z,91.10
